Time;durP1;ratioP1;P1;durP2;ratioP2;P2;SDS_P1;SDS_P2;PMS_P1;PMS_P2;Temp;Humidity;BMP_temperature;BMP_pressure;BME280_temperature;BME280_humidity;BME280_pressure;Samples;Min_cycle;Max_cycle;Signal;HPM_P1;HPM_P2
2021/01/29 09:34:37;;;;;;;7.93;2.20;;;11.10;99.90;;;;;;3279144;22;20235;-70
2021/01/29 09:37:07;;;;;;;9.83;1.73;;;11.00;99.90;;;;;;5032797;28;20205;-72
2021/01/29 09:39:39;;;;;;;6.70;1.10;;;11.10;99.90;;;;;;5035246;28;20212;-71
2021/01/29 09:42:09;;;;;;;6.07;0.70;;;11.20;99.90;;;;;;5034828;28;20275;-72
2021/01/29 09:44:42;;;;;;;7.47;1.20;;;11.30;99.90;;;;;;5047671;28;20223;-72
2021/01/29 09:47:11;;;;;;;7.57;0.87;;;11.30;99.90;;;;;;5054644;28;20230;-72
2021/01/29 09:49:41;;;;;;;3.67;0.97;;;11.30;99.90;;;;;;5053171;28;20658;-72
2021/01/29 09:52:18;;;;;;;6.00;0.87;;;11.30;99.90;;;;;;5035047;28;20316;-71
2021/01/29 09:54:56;;;;;;;9.87;1.40;;;11.40;99.90;;;;;;5037956;28;20234;-71
2021/01/29 09:57:25;;;;;;;9.73;1.03;;;11.30;99.90;;;;;;5053663;28;20224;-72
2021/01/29 10:00:02;;;;;;;6.10;0.80;;;11.30;99.90;;;;;;5054938;28;20540;-71
2021/01/29 10:02:33;;;;;;;7.80;1.27;;;11.40;99.90;;;;;;5054566;28;20236;-71
2021/01/29 10:05:16;;;;;;;6.63;0.97;;;11.40;99.90;;;;;;5049326;28;20204;-72
2021/01/29 10:07:53;;;;;;;9.10;1.27;;;11.30;99.90;;;;;;5054766;28;20208;-70
2021/01/29 10:10:29;;;;;;;9.00;1.20;;;11.40;99.90;;;;;;5054385;28;20211;-70
2021/01/29 10:13:04;;;;;;;7.10;1.30;;;11.40;99.90;;;;;;5033868;28;20282;-71
2021/01/29 10:15:36;;;;;;;6.87;1.17;;;11.40;99.90;;;;;;5044261;28;20713;-71
2021/01/29 10:18:07;;;;;;;6.13;0.90;;;11.40;99.90;;;;;;5053412;28;20239;-71
2021/01/29 10:20:37;;;;;;;12.30;1.83;;;11.50;99.90;;;;;;5048458;28;20203;-71
2021/01/29 10:23:16;;;;;;;6.97;1.10;;;11.60;99.90;;;;;;5043167;28;20228;-69
2021/01/29 10:25:56;;;;;;;9.37;0.83;;;11.60;99.90;;;;;;5052648;28;20212;-69
2021/01/29 10:28:47;;;;;;;11.07;1.60;;;11.40;99.90;;;;;;5051901;28;20208;-70
2021/01/29 10:31:15;;;;;;;7.83;1.00;;;11.10;99.90;;;;;;5041017;28;20224;-70
2021/01/29 10:33:46;;;;;;;5.13;1.33;;;11.10;99.90;;;;;;5048481;28;20262;-70
2021/01/29 10:36:21;;;;;;;10.83;1.83;;;11.20;99.90;;;;;;5050233;28;20212;-70
2021/01/29 10:38:51;;;;;;;7.67;1.30;;;11.40;99.90;;;;;;5051067;28;20354;-70
2021/01/29 10:41:21;;;;;;;9.40;1.13;;;11.60;99.90;;;;;;5050489;28;20678;-71
2021/01/29 10:43:50;;;;;;;6.17;0.90;;;11.60;99.90;;;;;;5052043;28;20212;-71
2021/01/29 10:46:44;;;;;;;10.90;1.17;;;11.70;99.90;;;;;;5052313;28;20512;-71
2021/01/29 10:49:17;;;;;;;9.27;1.00;;;11.70;99.90;;;;;;5052332;28;20265;-71
2021/01/29 10:51:55;;;;;;;8.90;1.40;;;11.80;99.90;;;;;;5051887;28;20224;-74
2021/01/29 10:54:23;;;;;;;8.63;1.30;;;11.90;99.90;;;;;;5051805;28;20243;-72
2021/01/29 10:57:02;;;;;;;9.20;1.27;;;11.90;99.90;;;;;;5052011;28;20567;-69
2021/01/29 10:59:37;;;;;;;11.20;1.00;;;11.90;99.90;;;;;;5052165;28;20227;-73
2021/01/29 11:02:09;;;;;;;8.57;1.20;;;12.00;99.90;;;;;;5051632;28;20764;-72
2021/01/29 11:04:40;;;;;;;6.07;1.17;;;11.90;99.90;;;;;;5031653;28;20626;-74
2021/01/29 11:07:16;;;;;;;7.63;1.20;;;11.90;99.90;;;;;;5044271;28;20219;-74
2021/01/29 11:09:44;;;;;;;6.17;1.30;;;11.90;99.90;;;;;;5040331;28;20219;-72
2021/01/29 11:12:22;;;;;;;4.90;1.10;;;11.90;99.90;;;;;;5031451;28;20216;-70
2021/01/29 11:14:55;;;;;;;7.93;1.00;;;12.10;99.90;;;;;;5031898;28;20239;-71
2021/01/29 11:17:32;;;;;;;6.63;1.30;;;12.10;99.90;;;;;;5031474;28;20797;-72
2021/01/29 11:20:03;;;;;;;7.33;1.23;;;12.20;99.90;;;;;;5031384;28;20212;-72
2021/01/29 11:22:42;;;;;;;7.90;1.67;;;12.30;99.90;;;;;;5030905;28;20247;-71
2021/01/29 11:25:48;;;;;;;5.97;1.43;;;12.30;99.90;;;;;;5031133;28;20227;-71
2021/01/29 11:28:29;;;;;;;12.47;1.10;;;12.30;99.90;;;;;;5023885;28;20211;-72
2021/01/29 11:31:01;;;;;;;8.43;1.33;;;12.20;99.90;;;;;;5031208;28;20205;-72
2021/01/29 11:33:33;;;;;;;4.03;0.90;;;12.00;99.90;;;;;;5051329;28;20605;-70
2021/01/29 11:36:04;;;;;;;7.27;0.73;;;11.90;99.90;;;;;;5052170;28;20698;-75
2021/01/29 11:38:53;;;;;;;11.53;1.40;;;11.80;99.90;;;;;;5053147;28;20218;-75
2021/01/29 11:41:30;;;;;;;4.97;0.80;;;11.80;99.90;;;;;;5042062;28;20231;-74
2021/01/29 11:44:06;;;;;;;9.33;1.30;;;11.90;99.90;;;;;;5053097;28;20223;-74
2021/01/29 11:46:38;;;;;;;5.40;0.90;;;12.00;99.90;;;;;;5052846;28;20211;-75
2021/01/29 11:49:13;;;;;;;8.00;0.80;;;12.00;99.90;;;;;;5052886;28;20203;-75
2021/01/29 11:51:43;;;;;;;6.57;1.10;;;12.00;99.90;;;;;;5052470;28;20227;-75
2021/01/29 11:54:16;;;;;;;7.20;1.23;;;11.90;99.90;;;;;;5052663;28;20231;-74
2021/01/29 11:56:54;;;;;;;9.60;1.10;;;11.80;99.90;;;;;;5052577;28;20221;-73
2021/01/29 11:59:31;;;;;;;11.07;1.17;;;11.80;99.90;;;;;;5053154;28;20204;-73
2021/01/29 12:02:03;;;;;;;7.27;0.83;;;11.80;99.90;;;;;;5052597;28;20693;-74
2021/01/29 12:04:35;;;;;;;9.63;1.33;;;11.80;99.90;;;;;;5052808;28;20285;-74
2021/01/29 12:07:06;;;;;;;11.23;1.60;;;11.80;99.90;;;;;;5052410;28;20211;-75
2021/01/29 12:09:44;;;;;;;4.77;0.90;;;11.80;99.90;;;;;;5052831;28;20204;-74
2021/01/29 12:12:18;;;;;;;5.63;1.00;;;12.00;99.90;;;;;;5052489;28;20220;-75
2021/01/29 12:15:08;;;;;;;3.63;0.80;;;11.90;99.90;;;;;;5052450;28;20226;-76
2021/01/29 12:17:36;;;;;;;4.77;0.90;;;11.90;99.90;;;;;;5052689;28;20215;-75
2021/01/29 12:20:06;;;;;;;8.40;1.13;;;12.00;99.90;;;;;;5052753;28;20204;-75
2021/01/29 12:22:38;;;;;;;4.63;0.80;;;12.00;99.90;;;;;;5052628;28;20576;-75
2021/01/29 12:25:36;;;;;;;2.90;0.93;;;11.90;99.90;;;;;;5052421;28;20204;-75
2021/01/29 12:28:12;;;;;;;3.90;1.00;;;11.80;99.90;;;;;;5052436;28;20208;-75
2021/01/29 12:30:45;;;;;;;8.13;0.87;;;11.80;99.90;;;;;;5052545;28;20214;-75
2021/01/29 12:33:16;;;;;;;14.00;1.33;;;11.90;99.90;;;;;;5052394;28;20216;-75
2021/01/29 12:35:50;;;;;;;7.83;1.17;;;12.00;99.90;;;;;;5051714;28;20232;-74
2021/01/29 12:38:21;;;;;;;7.80;1.00;;;11.90;99.90;;;;;;5052411;28;20215;-75
2021/01/29 12:40:52;;;;;;;4.07;0.80;;;12.10;99.90;;;;;;5055521;28;20266;-75
2021/01/29 12:43:26;;;;;;;6.10;0.97;;;12.30;99.90;;;;;;5056468;28;20674;-76
2021/01/29 12:45:56;;;;;;;6.60;1.27;;;12.50;99.90;;;;;;5056218;28;20223;-76
2021/01/29 12:48:44;;;;;;;2.97;0.80;;;12.40;99.90;;;;;;5056540;28;20204;-75
2021/01/29 12:51:15;;;;;;;8.33;1.17;;;12.60;99.90;;;;;;5055837;28;20684;-75
2021/01/29 12:54:01;;;;;;;8.47;1.40;;;12.40;99.90;;;;;;5056015;28;20204;-76
2021/01/29 12:56:51;;;;;;;10.33;1.20;;;12.20;99.90;;;;;;5056186;28;20685;-73
2021/01/29 12:59:32;;;;;;;4.93;0.90;;;12.10;99.90;;;;;;5056204;28;20219;-74
2021/01/29 13:02:08;;;;;;;3.03;0.70;;;11.90;99.90;;;;;;5056088;28;20262;-73
2021/01/29 13:04:42;;;;;;;3.57;0.57;;;11.60;99.90;;;;;;5055873;28;20677;-72
2021/01/29 13:07:13;;;;;;;7.77;1.03;;;11.40;99.90;;;;;;5055961;28;20570;-73
2021/01/29 13:10:08;;;;;;;2.00;0.40;;;11.40;99.90;;;;;;5056021;28;20200;-74
2021/01/29 13:12:52;;;;;;;3.40;0.40;;;11.40;99.90;;;;;;5055885;28;20805;-74
2021/01/29 13:15:34;;;;;;;0.67;0.33;;;11.30;99.90;;;;;;5055359;28;20259;-73
2021/01/29 13:18:03;;;;;;;1.17;0.20;;;11.10;99.90;;;;;;5055816;28;20208;-73
2021/01/29 13:20:33;;;;;;;2.60;0.50;;;11.20;99.90;;;;;;5055681;28;20208;-71
2021/01/29 13:23:19;;;;;;;5.37;0.80;;;11.30;99.90;;;;;;5055701;28;20224;-74
2021/01/29 13:26:01;;;;;;;3.17;0.60;;;11.40;99.90;;;;;;5055843;28;20203;-74
2021/01/29 13:28:30;;;;;;;3.53;0.60;;;11.40;99.90;;;;;;5055864;28;20569;-73
2021/01/29 13:31:12;;;;;;;4.13;0.67;;;11.20;99.90;;;;;;5055355;28;20208;-74
2021/01/29 13:33:46;;;;;;;0.97;0.37;;;11.10;99.90;;;;;;5055459;28;20200;-73
2021/01/29 13:36:19;;;;;;;6.60;0.70;;;11.10;99.90;;;;;;5055011;28;20219;-74
2021/01/29 13:38:45;;;;;;;5.67;0.77;;;11.20;99.90;;;;;;5055118;28;20210;-73
2021/01/29 13:41:14;;;;;;;5.93;0.63;;;11.20;99.90;;;;;;5055293;28;20250;-74
2021/01/29 13:43:43;;;;;;;1.80;0.50;;;11.20;99.90;;;;;;5055360;28;20605;-69
2021/01/29 13:46:27;;;;;;;5.27;0.80;;;11.20;99.90;;;;;;5055153;28;20219;-73
2021/01/29 13:49:25;;;;;;;1.93;0.40;;;11.30;99.90;;;;;;5055191;28;20206;-69
2021/01/29 13:51:52;;;;;;;3.70;0.50;;;11.30;99.90;;;;;;5054373;28;20583;-68
2021/01/29 13:54:32;;;;;;;7.07;1.23;;;11.20;99.90;;;;;;5054919;28;20235;-74
2021/01/29 13:57:05;;;;;;;6.80;0.93;;;11.10;99.90;;;;;;5055067;28;20219;-71
2021/01/29 13:59:38;;;;;;;2.03;0.43;;;11.10;99.90;;;;;;5051035;28;20204;-79
2021/01/29 14:02:23;;;;;;;6.83;0.67;;;11.00;99.90;;;;;;5042676;28;20220;-77
2021/01/29 14:04:56;;;;;;;2.47;0.40;;;10.90;99.90;;;;;;5033096;28;20300;-75
2021/01/29 14:07:22;;;;;;;3.80;1.03;;;11.00;99.90;;;;;;5034638;28;20259;-73
2021/01/29 14:09:50;;;;;;;1.30;0.40;;;11.10;99.90;;;;;;5034777;28;20205;-71
2021/01/29 14:12:32;;;;;;;2.33;0.30;;;11.10;99.90;;;;;;5034722;28;20228;-71
2021/01/29 14:15:08;;;;;;;3.50;0.57;;;11.00;99.90;;;;;;5034559;28;20244;-69
2021/01/29 14:17:43;;;;;;;5.60;0.80;;;11.00;99.90;;;;;;5041092;28;20211;-69
2021/01/29 14:20:17;;;;;;;4.80;0.63;;;11.00;99.90;;;;;;5052863;28;20211;-73
2021/01/29 14:22:51;;;;;;;3.47;0.77;;;10.90;99.90;;;;;;5051643;28;20286;-68
2021/01/29 14:25:31;;;;;;;3.87;0.80;;;10.80;99.90;;;;;;5051975;28;20238;-68
2021/01/29 14:28:05;;;;;;;5.40;0.70;;;10.60;99.90;;;;;;5049341;28;20728;-69
2021/01/29 14:30:46;;;;;;;5.23;0.73;;;10.50;99.90;;;;;;5032883;28;20201;-75
2021/01/29 14:33:26;;;;;;;4.57;0.73;;;10.50;99.90;;;;;;5040186;28;20224;-71
2021/01/29 14:36:03;;;;;;;2.83;0.73;;;10.50;99.90;;;;;;5034393;28;20235;-71
2021/01/29 14:38:47;;;;;;;3.13;0.60;;;10.40;99.90;;;;;;5051959;28;20204;-69
2021/01/29 14:41:20;;;;;;;4.77;0.60;;;10.40;99.90;;;;;;5051454;28;20236;-67
2021/01/29 14:44:01;;;;;;;3.50;0.43;;;10.50;99.90;;;;;;5043325;28;20200;-73
2021/01/29 14:46:42;;;;;;;2.83;0.63;;;10.50;99.90;;;;;;5041833;28;20212;-69
2021/01/29 14:49:48;;;;;;;3.83;0.80;;;10.50;99.90;;;;;;5045485;28;20204;-72
2021/01/29 14:52:15;;;;;;;5.17;0.57;;;10.40;99.90;;;;;;5037257;28;20224;-72
2021/01/29 14:54:49;;;;;;;4.43;0.70;;;10.40;99.90;;;;;;5031486;28;20260;-83
2021/01/29 14:57:19;;;;;;;5.70;0.73;;;10.30;99.90;;;;;;5039968;28;20205;-74
2021/01/29 14:59:50;;;;;;;2.90;1.00;;;10.30;99.90;;;;;;5046491;28;20250;-71
2021/01/29 15:02:22;;;;;;;2.87;0.63;;;10.30;99.90;;;;;;5049316;28;20706;-74
2021/01/29 15:04:50;;;;;;;2.57;0.70;;;10.30;99.90;;;;;;5050407;28;20215;-71
2021/01/29 15:07:21;;;;;;;4.00;0.63;;;10.40;99.90;;;;;;5048687;28;20211;-73
2021/01/29 15:09:53;;;;;;;3.27;0.80;;;10.20;99.90;;;;;;5049543;28;20218;-74
2021/01/29 15:12:20;;;;;;;3.00;0.67;;;10.20;99.90;;;;;;5049786;28;20256;-73
2021/01/29 15:14:50;;;;;;;3.33;0.40;;;10.20;99.90;;;;;;5049225;28;20246;-73
2021/01/29 15:17:26;;;;;;;1.60;0.57;;;10.20;99.90;;;;;;5042744;28;20837;-71
2021/01/29 15:20:05;;;;;;;4.07;0.77;;;10.20;99.90;;;;;;5030274;28;20263;-74
2021/01/29 15:22:33;;;;;;;4.67;1.00;;;10.20;99.90;;;;;;5029454;28;20282;-69
2021/01/29 15:25:25;;;;;;;1.07;0.43;;;10.20;99.90;;;;;;5030622;28;20280;-69
2021/01/29 15:27:51;;;;;;;3.23;0.50;;;10.30;99.90;;;;;;5030681;28;20679;-71
2021/01/29 15:30:36;;;;;;;4.10;0.70;;;10.30;99.90;;;;;;5031557;28;20540;-73
2021/01/29 15:33:10;;;;;;;2.40;0.30;;;10.30;99.90;;;;;;5031313;28;20229;-72
2021/01/29 15:35:36;;;;;;;1.67;0.50;;;10.20;99.90;;;;;;5031669;28;20232;-72
2021/01/29 15:38:09;;;;;;;3.33;0.40;;;10.20;99.90;;;;;;5034291;28;20215;-69
2021/01/29 15:40:42;;;;;;;1.37;0.50;;;10.20;99.90;;;;;;5050423;28;20216;-71
2021/01/29 15:43:28;;;;;;;1.07;0.50;;;10.20;99.90;;;;;;5049975;28;20228;-70
2021/01/29 15:45:57;;;;;;;1.13;0.47;;;10.30;99.90;;;;;;5048807;28;20676;-72
2021/01/29 15:48:56;;;;;;;2.60;0.63;;;10.30;99.90;;;;;;5030946;28;20213;-70
2021/01/29 15:51:51;;;;;;;3.20;0.40;;;10.20;99.90;;;;;;5031204;28;20228;-71
2021/01/29 15:54:34;;;;;;;3.30;0.47;;;10.20;99.90;;;;;;5021256;28;20200;-71
2021/01/29 15:57:09;;;;;;;1.50;0.63;;;10.30;99.90;;;;;;5030580;28;20207;-71
2021/01/29 15:59:46;;;;;;;2.57;0.87;;;10.30;99.90;;;;;;5030616;28;20200;-69
2021/01/29 16:02:42;;;;;;;2.50;0.93;;;10.20;99.90;;;;;;5030561;28;20703;-71
2021/01/29 16:05:32;;;;;;;3.33;0.90;;;10.30;99.90;;;;;;5031229;28;20591;-70
2021/01/29 16:08:03;;;;;;;5.63;1.00;;;10.30;99.90;;;;;;5033306;28;20214;-68
2021/01/29 16:10:31;;;;;;;2.90;0.60;;;10.30;99.90;;;;;;5050175;28;20711;-70
2021/01/29 16:13:17;;;;;;;3.80;1.20;;;10.20;99.90;;;;;;5050396;28;20274;-70
2021/01/29 16:15:43;;;;;;;4.63;1.20;;;10.20;99.90;;;;;;5049816;28;20236;-71
2021/01/29 16:18:14;;;;;;;5.57;1.67;;;10.00;99.90;;;;;;5033565;28;20209;-68
2021/01/29 16:20:43;;;;;;;2.00;1.20;;;9.90;99.90;;;;;;5034745;28;20263;-70
2021/01/29 16:23:16;;;;;;;4.07;1.40;;;10.00;99.90;;;;;;5034614;28;20224;-68
2021/01/29 16:25:43;;;;;;;3.33;1.30;;;9.90;99.90;;;;;;5037187;28;20223;-69
2021/01/29 16:28:15;;;;;;;4.00;1.43;;;9.90;99.90;;;;;;5034382;28;20209;-70
2021/01/29 16:30:44;;;;;;;6.30;1.30;;;9.80;99.90;;;;;;5033578;28;20236;-70
2021/01/29 16:33:14;;;;;;;9.13;1.63;;;9.80;99.90;;;;;;5034281;28;20315;-69
2021/01/29 16:35:43;;;;;;;5.30;1.60;;;9.70;99.90;;;;;;5034110;28;20240;-70
2021/01/29 16:38:13;;;;;;;8.00;1.50;;;9.80;99.90;;;;;;5052764;28;20208;-68
2021/01/29 16:40:42;;;;;;;7.47;2.30;;;9.70;99.90;;;;;;5054218;28;20204;-69
2021/01/29 16:43:13;;;;;;;4.87;2.30;;;9.70;99.90;;;;;;5054089;28;20224;-71
2021/01/29 16:45:42;;;;;;;8.13;1.93;;;9.60;99.90;;;;;;5045217;28;20212;-76
2021/01/29 16:48:11;;;;;;;6.87;1.70;;;9.60;99.90;;;;;;5032264;28;20304;-74
2021/01/29 16:50:44;;;;;;;7.50;1.83;;;9.60;99.90;;;;;;5032030;28;20209;-73
2021/01/29 16:53:18;;;;;;;3.97;1.40;;;9.50;99.90;;;;;;5031665;28;20591;-77
2021/01/29 16:55:44;;;;;;;6.93;1.73;;;9.50;99.90;;;;;;5038323;28;20238;-72
2021/01/29 16:58:17;;;;;;;6.53;1.97;;;9.50;99.90;;;;;;5032744;28;20216;-75
2021/01/29 17:00:45;;;;;;;6.23;1.30;;;9.50;99.90;;;;;;5033071;28;20205;-73
2021/01/29 17:03:35;;;;;;;6.77;1.70;;;9.50;99.90;;;;;;5035227;28;20239;-73
2021/01/29 17:06:04;;;;;;;8.17;1.80;;;9.60;99.90;;;;;;5049496;28;20203;-73
2021/01/29 17:08:34;;;;;;;10.17;2.17;;;9.60;99.90;;;;;;5041896;28;20200;-73
2021/01/29 17:11:28;;;;;;;8.43;1.70;;;9.60;99.90;;;;;;5047230;28;20200;-74
2021/01/29 17:13:55;;;;;;;6.20;1.70;;;9.60;99.90;;;;;;5053502;28;20204;-73
2021/01/29 17:16:24;;;;;;;5.30;1.63;;;9.70;99.90;;;;;;5053174;28;20235;-73
2021/01/29 17:18:54;;;;;;;9.87;1.47;;;9.60;99.90;;;;;;5053735;28;20215;-73
2021/01/29 17:21:22;;;;;;;10.30;1.63;;;9.70;99.90;;;;;;5053179;28;20228;-72
2021/01/29 17:23:49;;;;;;;5.80;1.60;;;9.60;99.90;;;;;;5052692;28;20670;-69
2021/01/29 17:26:17;;;;;;;11.73;1.90;;;9.70;99.90;;;;;;5052328;28;20212;-73
2021/01/29 17:28:47;;;;;;;14.30;2.17;;;9.70;99.90;;;;;;5052891;28;20558;-73
2021/01/29 17:31:15;;;;;;;7.47;1.20;;;9.70;99.90;;;;;;5052508;28;20227;-74
2021/01/29 17:33:48;;;;;;;4.60;1.20;;;9.70;99.90;;;;;;5052858;28;20211;-72
2021/01/29 17:36:23;;;;;;;5.53;1.60;;;9.70;99.90;;;;;;5047405;28;20232;-70
2021/01/29 17:39:17;;;;;;;8.03;1.43;;;9.70;99.90;;;;;;5052355;28;20276;-74
2021/01/29 17:41:45;;;;;;;6.53;1.27;;;9.80;99.90;;;;;;5051714;28;20232;-73
2021/01/29 17:44:23;;;;;;;10.70;1.80;;;9.80;99.90;;;;;;5053015;28;20204;-74
2021/01/29 17:46:51;;;;;;;3.47;1.00;;;9.70;99.90;;;;;;5052193;28;20208;-71
2021/01/29 17:49:30;;;;;;;9.77;1.60;;;9.80;99.90;;;;;;5053048;28;20208;-73
2021/01/29 17:52:16;;;;;;;4.20;1.07;;;9.70;99.90;;;;;;5051782;28;20232;-70
2021/01/29 17:54:45;;;;;;;5.70;1.17;;;9.60;99.90;;;;;;5051993;28;20235;-71
2021/01/29 17:57:31;;;;;;;8.10;1.50;;;9.60;99.90;;;;;;5051950;28;20204;-72
2021/01/29 18:00:04;;;;;;;8.80;2.10;;;9.60;99.90;;;;;;5051810;28;20218;-72
2021/01/29 18:02:32;;;;;;;5.23;1.80;;;9.50;99.90;;;;;;5052063;28;20318;-72
2021/01/29 18:05:01;;;;;;;8.43;1.63;;;9.40;99.90;;;;;;5052751;28;20204;-70
2021/01/29 18:07:35;;;;;;;9.47;1.90;;;9.40;99.90;;;;;;5051463;28;20208;-70
2021/01/29 18:10:30;;;;;;;3.70;1.63;;;9.40;99.90;;;;;;5052741;28;20212;-71
2021/01/29 18:13:08;;;;;;;12.50;1.50;;;9.40;99.90;;;;;;5052129;28;20275;-70
2021/01/29 18:15:48;;;;;;;3.63;1.23;;;9.40;99.90;;;;;;5051591;28;20243;-69
2021/01/29 18:18:23;;;;;;;7.37;1.40;;;9.40;99.90;;;;;;5038385;28;20208;-70
2021/01/29 18:20:51;;;;;;;4.13;1.40;;;9.20;99.90;;;;;;5032731;28;20207;-68
2021/01/29 18:23:21;;;;;;;6.10;1.17;;;9.30;99.90;;;;;;5032217;28;20331;-70
2021/01/29 18:25:48;;;;;;;10.07;3.60;;;9.20;99.90;;;;;;5036585;28;20207;-67
2021/01/29 18:28:20;;;;;;;4.03;1.83;;;9.10;99.90;;;;;;5051446;28;20226;-67
2021/01/29 18:30:49;;;;;;;6.07;3.40;;;9.00;99.90;;;;;;5051148;28;20523;-67
2021/01/29 18:33:18;;;;;;;8.20;2.60;;;9.10;99.90;;;;;;5051213;28;20220;-68
2021/01/29 18:35:45;;;;;;;7.27;1.87;;;9.00;99.90;;;;;;5051215;28;20318;-68
2021/01/29 18:38:11;;;;;;;6.50;2.67;;;9.20;99.90;;;;;;5050282;28;20291;-68
2021/01/29 18:40:37;;;;;;;5.20;1.77;;;9.20;99.90;;;;;;5052338;28;20204;-67
2021/01/29 18:43:04;;;;;;;7.87;1.60;;;9.20;99.90;;;;;;5051400;28;20232;-68
2021/01/29 18:45:30;;;;;;;6.07;1.50;;;9.20;99.90;;;;;;5051418;28;20207;-68
2021/01/29 18:47:57;;;;;;;5.00;1.80;;;9.20;99.90;;;;;;5051526;28;20223;-68
2021/01/29 18:50:25;;;;;;;5.13;1.50;;;9.20;99.90;;;;;;5051605;28;20215;-68
2021/01/29 18:52:51;;;;;;;8.13;1.80;;;9.30;99.90;;;;;;5051084;28;20247;-68
2021/01/29 18:55:21;;;;;;;8.03;1.87;;;9.20;99.90;;;;;;5051031;28;20297;-69
2021/01/29 18:57:48;;;;;;;8.93;1.83;;;9.20;99.90;;;;;;5051098;28;20211;-68
2021/01/29 19:00:16;;;;;;;5.83;1.73;;;9.20;99.90;;;;;;5051092;28;20208;-67
2021/01/29 19:02:43;;;;;;;4.43;1.47;;;9.20;99.90;;;;;;5051026;28;20291;-68
2021/01/29 19:05:14;;;;;;;7.83;2.00;;;9.20;99.90;;;;;;5051613;28;20253;-68
2021/01/29 19:07:40;;;;;;;11.80;1.67;;;9.20;99.90;;;;;;5050865;28;20203;-68
2021/01/29 19:10:08;;;;;;;7.13;1.60;;;9.20;99.90;;;;;;5049633;28;20215;-68
2021/01/29 19:12:34;;;;;;;1.27;1.07;;;9.10;99.90;;;;;;5037124;28;20239;-68
2021/01/29 19:15:01;;;;;;;8.53;1.37;;;9.20;99.90;;;;;;5031301;28;20279;-68
2021/01/29 19:17:27;;;;;;;4.50;1.60;;;9.10;99.90;;;;;;5045087;28;20211;-69
2021/01/29 19:19:55;;;;;;;7.57;1.60;;;9.10;99.90;;;;;;5051191;28;20208;-69
2021/01/29 19:22:22;;;;;;;7.10;1.80;;;9.20;99.90;;;;;;5050118;28;20625;-68
2021/01/29 19:24:49;;;;;;;5.87;1.73;;;9.20;99.90;;;;;;5051376;28;20219;-68
2021/01/29 19:27:15;;;;;;;3.47;1.77;;;9.10;99.90;;;;;;5051294;28;20212;-69
2021/01/29 19:29:42;;;;;;;3.53;1.70;;;9.10;99.90;;;;;;5049997;28;20548;-68
2021/01/29 19:32:08;;;;;;;2.80;1.57;;;9.20;99.90;;;;;;5051108;28;20736;-67
2021/01/29 19:34:34;;;;;;;10.13;1.80;;;9.20;99.90;;;;;;5051035;28;20216;-68
2021/01/29 19:37:01;;;;;;;6.37;1.70;;;9.20;99.90;;;;;;5049494;28;20258;-66
2021/01/29 19:39:29;;;;;;;11.00;2.27;;;9.10;99.90;;;;;;5051177;28;20258;-69
2021/01/29 19:41:55;;;;;;;7.60;1.57;;;9.20;99.90;;;;;;5050977;28;20265;-67
2021/01/29 19:44:23;;;;;;;6.73;1.83;;;9.30;99.90;;;;;;5050738;28;20204;-67
2021/01/29 19:46:49;;;;;;;4.93;1.90;;;9.30;99.90;;;;;;5051072;28;20544;-69
2021/01/29 19:49:16;;;;;;;5.73;1.80;;;9.30;99.90;;;;;;5051363;28;20242;-69
2021/01/29 19:51:43;;;;;;;4.93;1.90;;;9.20;99.90;;;;;;5049973;28;20278;-68
2021/01/29 19:54:09;;;;;;;4.67;2.10;;;9.30;99.90;;;;;;5050914;28;20203;-69
2021/01/29 19:56:38;;;;;;;4.20;1.93;;;9.30;99.90;;;;;;5050777;28;20266;-69
2021/01/29 19:59:05;;;;;;;4.73;1.77;;;9.30;99.90;;;;;;5050343;28;20558;-69
2021/01/29 20:01:32;;;;;;;3.57;1.87;;;9.30;99.90;;;;;;5050497;28;20228;-69
2021/01/29 20:03:58;;;;;;;6.50;1.90;;;9.40;99.90;;;;;;5050523;28;20215;-69
2021/01/29 20:06:24;;;;;;;4.70;1.53;;;9.40;99.90;;;;;;5050387;28;20208;-69
2021/01/29 20:08:50;;;;;;;3.80;1.87;;;9.40;99.90;;;;;;5050998;28;20251;-69
2021/01/29 20:11:17;;;;;;;8.73;1.83;;;9.50;99.90;;;;;;5051011;28;20228;-69
2021/01/29 20:13:44;;;;;;;3.33;1.20;;;9.50;99.90;;;;;;5050183;28;20200;-69
2021/01/29 20:16:11;;;;;;;2.70;1.40;;;9.60;99.90;;;;;;5050804;28;20231;-69
2021/01/29 20:18:38;;;;;;;7.63;1.93;;;9.50;99.90;;;;;;5051218;28;20215;-68
2021/01/29 20:21:05;;;;;;;6.10;2.07;;;9.60;99.90;;;;;;5049837;28;20204;-69
2021/01/29 20:23:31;;;;;;;2.97;1.07;;;9.60;99.90;;;;;;5050452;28;20208;-68
2021/01/29 20:25:58;;;;;;;11.73;1.60;;;9.60;99.90;;;;;;5044277;28;20204;-69
2021/01/29 20:28:26;;;;;;;5.57;1.60;;;9.70;99.90;;;;;;5040524;28;20558;-69
2021/01/29 20:30:54;;;;;;;4.90;2.03;;;9.70;99.90;;;;;;5038807;28;20320;-68
2021/01/29 20:33:22;;;;;;;4.47;1.57;;;9.70;99.90;;;;;;5044536;28;20543;-67
2021/01/29 20:35:48;;;;;;;3.40;1.50;;;9.70;99.90;;;;;;5048818;28;20243;-68
2021/01/29 20:38:15;;;;;;;3.27;1.50;;;9.60;99.90;;;;;;5050206;28;20215;-66
2021/01/29 20:40:42;;;;;;;2.83;1.30;;;9.60;99.90;;;;;;5050086;28;20214;-68
2021/01/29 20:43:09;;;;;;;4.90;1.23;;;9.60;99.90;;;;;;5043632;28;20217;-69
2021/01/29 20:45:37;;;;;;;4.20;1.43;;;9.60;99.90;;;;;;5043626;28;20597;-69
2021/01/29 20:48:06;;;;;;;3.23;1.37;;;9.70;99.90;;;;;;5049000;28;20208;-69
2021/01/29 20:50:35;;;;;;;2.33;0.97;;;9.70;99.90;;;;;;5048660;28;20204;-69
2021/01/29 20:53:01;;;;;;;5.27;1.70;;;9.70;99.90;;;;;;5048618;28;20383;-67
2021/01/29 20:55:27;;;;;;;3.73;1.13;;;9.70;99.90;;;;;;5048896;28;20702;-67
2021/01/29 20:57:53;;;;;;;6.07;1.50;;;9.80;99.90;;;;;;5048609;28;20266;-68
2021/01/29 21:00:22;;;;;;;5.13;1.00;;;9.80;99.90;;;;;;5049832;28;20728;-67
2021/01/29 21:02:49;;;;;;;2.83;1.40;;;9.70;99.90;;;;;;5053660;28;20262;-69
2021/01/29 21:05:17;;;;;;;2.57;1.30;;;9.60;99.90;;;;;;5053603;28;20212;-68
2021/01/29 21:07:43;;;;;;;2.20;1.17;;;9.60;99.90;;;;;;5053624;28;20208;-69
2021/01/29 21:10:12;;;;;;;3.97;1.33;;;9.60;99.90;;;;;;5053723;28;20262;-69
2021/01/29 21:12:39;;;;;;;2.70;0.90;;;9.50;99.90;;;;;;5053137;28;20228;-69
2021/01/29 21:15:07;;;;;;;5.17;1.03;;;9.50;99.90;;;;;;5053460;28;20228;-68
2021/01/29 21:17:33;;;;;;;2.07;0.90;;;9.50;99.90;;;;;;5053317;28;20682;-69
2021/01/29 21:19:59;;;;;;;3.23;1.40;;;9.60;99.90;;;;;;5053554;28;20552;-69
2021/01/29 21:22:26;;;;;;;2.83;0.80;;;9.60;99.90;;;;;;5053554;28;20564;-68
2021/01/29 21:24:53;;;;;;;2.77;1.00;;;9.50;99.90;;;;;;5054099;28;20227;-69
2021/01/29 21:27:19;;;;;;;2.07;1.20;;;9.50;99.90;;;;;;5052896;28;20219;-69
2021/01/29 21:29:45;;;;;;;5.03;1.10;;;9.40;99.90;;;;;;5053461;28;20208;-69
2021/01/29 21:32:11;;;;;;;6.10;0.80;;;9.20;99.90;;;;;;5053490;28;20250;-67
2021/01/29 21:34:38;;;;;;;4.30;1.00;;;9.20;99.90;;;;;;5053606;28;20211;-69
2021/01/29 21:37:05;;;;;;;2.63;0.90;;;9.30;99.90;;;;;;5052751;28;20208;-69
2021/01/29 21:39:32;;;;;;;2.03;0.90;;;9.20;99.90;;;;;;5053320;28;20658;-69
2021/01/29 21:41:59;;;;;;;5.23;1.23;;;9.20;99.90;;;;;;5052773;28;20224;-68
2021/01/29 21:44:26;;;;;;;1.67;0.80;;;9.20;99.90;;;;;;5052975;28;20674;-69
2021/01/29 21:47:00;;;;;;;3.73;0.93;;;9.30;99.90;;;;;;5052970;28;20261;-67
2021/01/29 21:49:27;;;;;;;1.77;0.90;;;9.30;99.90;;;;;;5052734;28;20281;-67
2021/01/29 21:51:53;;;;;;;1.90;1.00;;;9.30;99.90;;;;;;5052584;28;20247;-70
2021/01/29 21:54:20;;;;;;;4.07;1.20;;;9.30;99.90;;;;;;5049660;28;20212;-69
2021/01/29 21:56:48;;;;;;;2.83;0.80;;;9.30;99.90;;;;;;5053866;28;20231;-67
2021/01/29 21:59:15;;;;;;;3.07;1.17;;;9.30;99.90;;;;;;5043841;28;20201;-69
2021/01/29 22:01:41;;;;;;;3.37;0.97;;;9.30;99.90;;;;;;5043598;28;20215;-69
2021/01/29 22:04:07;;;;;;;3.70;1.10;;;9.30;99.90;;;;;;5044492;28;20200;-66
2021/01/29 22:06:34;;;;;;;4.10;1.00;;;9.20;99.90;;;;;;5043359;28;20572;-68
2021/01/29 22:09:00;;;;;;;5.63;0.83;;;9.20;99.90;;;;;;5043702;28;20203;-68
